createdAt,value
2019-01-06T00:00:42.000Z,24.31
2019-01-06T00:20:40.000Z,24.25
2019-01-06T00:30:39.000Z,24.28
2019-01-06T00:40:39.000Z,24.2
2019-01-06T00:50:40.000Z,24.19
2019-01-06T01:00:39.000Z,24.19
2019-01-06T01:10:39.000Z,24.2
2019-01-06T01:20:39.000Z,24.13
2019-01-06T01:30:39.000Z,24.07
2019-01-06T01:40:39.000Z,24.01
2019-01-06T01:50:39.000Z,24.01
2019-01-06T02:00:42.000Z,23.97
2019-01-06T02:10:39.000Z,23.88
2019-01-06T02:20:39.000Z,23.93
2019-01-06T02:30:39.000Z,23.89
2019-01-06T02:40:39.000Z,23.89
2019-01-06T02:50:39.000Z,23.84
2019-01-06T03:00:39.000Z,23.79
2019-01-06T03:10:39.000Z,23.72
2019-01-06T03:20:39.000Z,23.69
2019-01-06T03:30:39.000Z,23.61
2019-01-06T03:40:39.000Z,23.56
2019-01-06T03:50:39.000Z,23.52
2019-01-06T04:00:39.000Z,23.48
2019-01-06T04:10:39.000Z,23.44
2019-01-06T04:20:39.000Z,23.38
2019-01-06T04:30:39.000Z,23.36
2019-01-06T04:40:39.000Z,23.2
2019-01-06T04:50:40.000Z,23.18
2019-01-06T05:00:40.000Z,23.22
2019-01-06T05:10:40.000Z,23.19
2019-01-06T05:20:40.000Z,23.19
2019-01-06T05:30:40.000Z,23.24
2019-01-06T05:40:40.000Z,23.29
2019-01-06T05:50:40.000Z,23.36
2019-01-06T06:00:40.000Z,23.38
2019-01-06T06:10:40.000Z,23.43
2019-01-06T06:20:40.000Z,23.47
2019-01-06T06:30:40.000Z,23.46
2019-01-06T06:40:40.000Z,23.52
2019-01-06T06:50:40.000Z,23.55
2019-01-06T07:00:40.000Z,23.59
2019-01-06T07:10:40.000Z,23.62
2019-01-06T07:20:40.000Z,23.6
2019-01-06T07:30:40.000Z,23.64
2019-01-06T07:40:40.000Z,23.69
2019-01-06T07:50:40.000Z,23.7
2019-01-06T08:00:40.000Z,23.69
2019-01-06T08:10:40.000Z,23.73
2019-01-06T08:20:40.000Z,23.77
2019-01-06T08:30:40.000Z,23.79
2019-01-06T08:40:40.000Z,23.86
2019-01-06T08:50:40.000Z,23.95
2019-01-06T09:00:40.000Z,24.01
2019-01-06T09:10:40.000Z,24.03
2019-01-06T09:20:41.000Z,24.14
2019-01-06T09:30:40.000Z,24.25
2019-01-06T09:40:40.000Z,24.29
2019-01-06T09:50:40.000Z,24.28
2019-01-06T10:00:40.000Z,24.16
2019-01-06T10:10:40.000Z,24.38
2019-01-06T10:20:40.000Z,24.43
2019-01-06T10:30:40.000Z,24.51
2019-01-06T10:40:40.000Z,24.55
2019-01-06T10:50:41.000Z,24.57
2019-01-06T11:00:41.000Z,24.57
2019-01-06T11:10:40.000Z,24.54
2019-01-06T11:20:40.000Z,24.51
2019-01-06T11:30:41.000Z,24.54
2019-01-06T11:40:40.000Z,24.64
2019-01-06T11:50:42.000Z,24.72
2019-01-06T12:00:40.000Z,24.56
2019-01-06T12:10:41.000Z,24.41
2019-01-06T12:20:40.000Z,24.45
2019-01-06T12:30:40.000Z,24.44
2019-01-06T12:40:40.000Z,24.42
2019-01-06T12:50:40.000Z,24.47
2019-01-06T13:00:43.000Z,24.48
2019-01-06T13:10:41.000Z,24.48
2019-01-06T13:20:41.000Z,24.57
2019-01-06T13:30:41.000Z,24.53
2019-01-06T13:40:41.000Z,24.5
2019-01-06T13:50:41.000Z,24.48
2019-01-06T14:00:41.000Z,24.5
2019-01-06T14:10:41.000Z,24.47
2019-01-06T14:20:41.000Z,24.64
2019-01-06T14:30:41.000Z,24.5
2019-01-06T14:40:41.000Z,24.51
2019-01-06T14:50:41.000Z,24.6
2019-01-06T15:00:41.000Z,24.54
2019-01-06T15:10:41.000Z,24.54
2019-01-06T15:20:41.000Z,24.47
2019-01-06T15:30:41.000Z,24.52
2019-01-06T15:40:41.000Z,24.67
2019-01-06T15:50:41.000Z,24.66
2019-01-06T16:00:41.000Z,24.72
2019-01-06T16:10:41.000Z,24.76
2019-01-06T16:20:41.000Z,24.75
2019-01-06T16:30:41.000Z,24.79
2019-01-06T16:40:41.000Z,24.81
2019-01-06T16:50:41.000Z,24.73
2019-01-06T17:00:41.000Z,24.76
2019-01-06T17:10:41.000Z,24.75
2019-01-06T17:20:41.000Z,24.74
2019-01-06T17:30:41.000Z,24.86
2019-01-06T17:40:41.000Z,24.81
2019-01-06T17:50:41.000Z,24.67
2019-01-06T18:00:42.000Z,24.5
2019-01-06T18:10:42.000Z,24.61
2019-01-06T18:20:41.000Z,24.72
2019-01-06T18:30:41.000Z,24.7
2019-01-06T18:40:41.000Z,24.87
2019-01-06T18:50:41.000Z,24.75
2019-01-06T19:00:41.000Z,24.82
2019-01-06T19:10:41.000Z,24.92
2019-01-06T19:20:41.000Z,24.98
2019-01-06T19:30:41.000Z,24.91
2019-01-06T19:40:41.000Z,24.95
2019-01-06T19:50:43.000Z,25
2019-01-06T20:00:41.000Z,25.02
2019-01-06T20:10:42.000Z,24.8
2019-01-06T20:20:41.000Z,24.99
2019-01-06T20:30:41.000Z,24.98
2019-01-06T20:40:41.000Z,25.05
2019-01-06T20:50:41.000Z,25.04
2019-01-06T21:00:41.000Z,24.73
2019-01-06T21:10:42.000Z,25.08
2019-01-06T21:20:42.000Z,25
2019-01-06T21:30:44.000Z,24.78
2019-01-06T21:40:42.000Z,25.04
2019-01-06T21:50:42.000Z,25.01
2019-01-06T22:00:42.000Z,25.06
2019-01-06T22:10:42.000Z,25.13
2019-01-06T22:20:42.000Z,25.04
2019-01-06T22:30:42.000Z,25.02
2019-01-06T22:40:42.000Z,24.92
2019-01-06T22:50:42.000Z,24.88
2019-01-06T23:00:42.000Z,24.88
2019-01-06T23:10:42.000Z,24.81
2019-01-06T23:20:42.000Z,24.77
2019-01-06T23:30:42.000Z,24.69
2019-01-06T23:40:42.000Z,24.58
2019-01-06T23:50:42.000Z,24.57
